createdAt,value
2022-11-10T00:00:54.385Z,10.87
2022-11-10T00:03:40.563Z,10.95
2022-11-10T00:06:26.742Z,10.93
2022-11-10T00:09:12.499Z,10.92
2022-11-10T00:11:59.021Z,10.80
2022-11-10T00:15:03.731Z,10.87
2022-11-10T00:17:50.086Z,10.88
2022-11-10T00:20:35.899Z,10.87
2022-11-10T00:23:22.013Z,10.88
2022-11-10T00:26:17.730Z,10.89
2022-11-10T00:29:04.075Z,10.88
2022-11-10T00:31:49.894Z,10.85
2022-11-10T00:34:36.342Z,10.86
2022-11-10T00:37:22.187Z,10.87
2022-11-10T00:40:08.370Z,10.86
2022-11-10T00:42:54.477Z,10.74
2022-11-10T00:45:43.125Z,10.71
2022-11-10T00:48:28.763Z,10.82
2022-11-10T00:51:26.014Z,10.83
2022-11-10T00:54:11.775Z,10.81
2022-11-10T00:56:57.791Z,10.74
2022-11-10T00:59:44.147Z,10.78
2022-11-10T01:02:31.294Z,10.78
2022-11-10T01:05:17.592Z,10.78
2022-11-10T01:08:04.004Z,10.67
2022-11-10T01:10:50.294Z,10.68
2022-11-10T01:13:37.205Z,10.77
2022-11-10T01:16:25.471Z,10.77
2022-11-10T01:19:11.147Z,10.70
2022-11-10T01:21:57.078Z,10.60
2022-11-10T01:24:42.797Z,10.57
2022-11-10T01:27:28.728Z,10.70
2022-11-10T01:30:14.626Z,10.70
2022-11-10T01:33:00.684Z,10.68
2022-11-10T01:35:46.473Z,10.62
2022-11-10T01:38:34.158Z,10.62
2022-11-10T01:41:20.101Z,10.62
2022-11-10T01:44:23.289Z,10.67
2022-11-10T01:47:09.432Z,10.59
2022-11-10T01:49:55.710Z,10.70
2022-11-10T01:52:43.202Z,10.70
2022-11-10T01:55:29.187Z,10.63
2022-11-10T01:58:16.974Z,10.67
2022-11-10T02:01:03.235Z,10.67
2022-11-10T02:04:01.708Z,10.62
2022-11-10T02:06:49.145Z,10.57
2022-11-10T02:09:35.314Z,10.57
2022-11-10T02:12:36.982Z,10.52
2022-11-10T02:15:23.333Z,10.57
2022-11-10T02:18:09.500Z,10.52
2022-11-10T02:20:55.464Z,10.53
2022-11-10T02:23:44.791Z,10.57
2022-11-10T02:26:30.759Z,10.58
2022-11-10T02:29:16.713Z,10.62
2022-11-10T02:32:02.975Z,10.66
2022-11-10T02:34:49.060Z,10.61
2022-11-10T02:37:35.159Z,10.67
2022-11-10T02:40:20.838Z,10.67
2022-11-10T02:43:08.912Z,10.62
2022-11-10T02:45:55.013Z,10.69
2022-11-10T02:48:41.054Z,10.65
2022-11-10T02:51:27.189Z,10.62
2022-11-10T02:54:13.148Z,10.64
2022-11-10T02:56:59.284Z,10.59
2022-11-10T02:59:47.936Z,10.59
2022-11-10T03:02:33.962Z,10.70
2022-11-10T03:05:19.852Z,10.46
2022-11-10T03:08:05.956Z,10.63
2022-11-10T03:10:56.633Z,10.64
2022-11-10T03:14:00.187Z,10.68
2022-11-10T03:16:47.067Z,10.69
2022-11-10T03:19:32.808Z,10.70
2022-11-10T03:22:19.234Z,10.72
2022-11-10T03:25:06.025Z,10.64
2022-11-10T03:27:51.949Z,10.56
2022-11-10T03:30:38.604Z,10.63
2022-11-10T03:33:24.816Z,10.61
2022-11-10T03:36:10.989Z,10.56
2022-11-10T03:38:57.105Z,10.59
2022-11-10T03:41:42.953Z,10.66
2022-11-10T03:44:28.640Z,10.63
2022-11-10T03:47:14.616Z,10.67
2022-11-10T03:50:00.648Z,10.66
2022-11-10T03:52:47.248Z,10.59
2022-11-10T03:55:33.255Z,10.70
2022-11-10T03:58:19.004Z,10.71
2022-11-10T04:01:04.940Z,10.63
2022-11-10T04:03:51.739Z,10.73
2022-11-10T04:06:56.245Z,10.71
2022-11-10T04:09:42.275Z,10.67
2022-11-10T04:12:46.506Z,10.69
2022-11-10T04:15:44.313Z,10.72
2022-11-10T04:18:30.204Z,10.68
2022-11-10T04:21:15.988Z,10.72
2022-11-10T04:24:01.976Z,10.64
2022-11-10T04:26:48.767Z,10.71
2022-11-10T04:29:34.825Z,10.68
2022-11-10T04:32:20.738Z,10.66
2022-11-10T04:35:06.946Z,10.70
2022-11-10T04:37:52.741Z,10.61
2022-11-10T04:40:38.722Z,10.64
2022-11-10T04:43:24.919Z,10.75
2022-11-10T04:46:21.167Z,10.73
2022-11-10T04:49:07.855Z,10.66
2022-11-10T04:51:53.680Z,10.68
2022-11-10T04:54:39.953Z,10.62
2022-11-10T04:57:25.667Z,10.61
2022-11-10T05:00:12.193Z,10.66
2022-11-10T05:03:02.111Z,10.49
2022-11-10T05:05:47.742Z,10.63
2022-11-10T05:08:34.188Z,10.64
2022-11-10T05:11:20.317Z,10.57
2022-11-10T05:14:06.196Z,10.63
2022-11-10T05:16:52.082Z,10.68
2022-11-10T05:19:37.846Z,10.70
2022-11-10T05:22:23.568Z,10.72
2022-11-10T05:25:09.585Z,10.64
2022-11-10T05:27:55.459Z,10.54
2022-11-10T05:30:41.600Z,10.55
2022-11-10T05:33:27.661Z,10.50
2022-11-10T05:36:13.430Z,10.46
2022-11-10T05:38:59.546Z,10.61
2022-11-10T05:41:45.282Z,10.63
2022-11-10T05:44:31.038Z,10.68
2022-11-10T05:47:17.180Z,10.68
2022-11-10T05:50:03.135Z,10.63
2022-11-10T05:52:51.502Z,10.60
2022-11-10T05:55:37.657Z,10.55
2022-11-10T05:58:23.612Z,10.57
2022-11-10T06:01:09.412Z,10.61
2022-11-10T06:03:55.588Z,10.60
2022-11-10T06:06:41.721Z,11.06
2022-11-10T06:09:28.127Z,11.51
2022-11-10T06:12:14.654Z,11.71
2022-11-10T06:15:00.599Z,12.07
2022-11-10T06:17:46.810Z,12.35
2022-11-10T06:20:32.974Z,12.34
2022-11-10T06:23:19.162Z,12.28
2022-11-10T06:26:05.565Z,12.09
2022-11-10T06:28:51.955Z,11.82
2022-11-10T06:31:38.254Z,11.91
2022-11-10T06:34:24.606Z,11.76
2022-11-10T06:37:10.760Z,11.78
2022-11-10T06:39:57.316Z,11.92
2022-11-10T06:42:43.453Z,11.91
2022-11-10T06:45:29.935Z,11.76
2022-11-10T06:48:16.592Z,11.90
2022-11-10T06:51:03.840Z,11.73
2022-11-10T06:53:50.345Z,11.78
2022-11-10T06:56:36.628Z,11.83
2022-11-10T06:59:22.712Z,11.74
2022-11-10T07:02:19.536Z,11.86
2022-11-10T07:05:05.520Z,11.78
2022-11-10T07:07:51.850Z,11.86
2022-11-10T07:10:38.047Z,11.93
2022-11-10T07:13:24.371Z,11.82
2022-11-10T07:16:11.353Z,12.00
2022-11-10T07:18:57.654Z,12.01
2022-11-10T07:21:43.744Z,11.88
2022-11-10T07:24:30.564Z,12.10
2022-11-10T07:27:16.827Z,11.97
2022-11-10T07:30:06.776Z,11.86
2022-11-10T07:33:00.593Z,11.93
2022-11-10T07:35:53.194Z,12.01
2022-11-10T07:38:39.367Z,11.80
2022-11-10T07:41:32.919Z,12.18
2022-11-10T07:44:20.566Z,12.13
2022-11-10T07:47:06.554Z,12.16
2022-11-10T07:49:52.595Z,12.01
2022-11-10T07:52:39.048Z,12.00
2022-11-10T07:55:25.089Z,12.02
2022-11-10T07:58:13.950Z,11.94
2022-11-10T08:00:59.958Z,11.91
2022-11-10T08:03:46.083Z,12.02
2022-11-10T08:06:35.982Z,11.98
2022-11-10T08:09:22.615Z,12.03
2022-11-10T08:12:08.803Z,12.06
2022-11-10T08:14:54.603Z,12.04
2022-11-10T08:17:40.618Z,11.97
2022-11-10T08:20:27.269Z,12.08
2022-11-10T08:23:14.606Z,12.06
2022-11-10T08:26:01.369Z,12.12
2022-11-10T08:28:47.226Z,12.10
2022-11-10T08:31:34.200Z,12.17
2022-11-10T08:34:21.735Z,12.19
2022-11-10T08:37:07.893Z,12.29
2022-11-10T08:39:54.914Z,12.42
2022-11-10T08:42:43.596Z,12.33
2022-11-10T08:45:29.514Z,12.25
2022-11-10T08:48:17.602Z,12.26
2022-11-10T08:51:03.461Z,12.23
2022-11-10T08:53:49.425Z,12.34
2022-11-10T08:56:35.290Z,12.39
2022-11-10T08:59:21.221Z,12.23
2022-11-10T09:02:09.927Z,12.22
2022-11-10T09:04:55.993Z,12.29
2022-11-10T09:07:45.935Z,12.19
2022-11-10T09:10:39.838Z,12.16
2022-11-10T09:13:29.832Z,12.28
2022-11-10T09:16:16.838Z,12.38
2022-11-10T09:19:24.985Z,12.45
2022-11-10T09:22:10.935Z,12.51
2022-11-10T09:24:57.109Z,12.62
2022-11-10T09:27:43.121Z,12.76
2022-11-10T09:30:29.096Z,12.97
2022-11-10T09:33:15.646Z,13.02
2022-11-10T09:36:02.214Z,13.05
2022-11-10T09:38:48.300Z,13.14
2022-11-10T09:41:34.199Z,13.11
2022-11-10T09:44:27.096Z,13.06
2022-11-10T09:47:42.227Z,12.97
2022-11-10T09:50:31.584Z,13.01
2022-11-10T09:53:22.662Z,12.93
2022-11-10T09:56:12.939Z,12.71
2022-11-10T09:58:58.804Z,12.60
2022-11-10T10:02:00.041Z,12.76
2022-11-10T10:04:53.450Z,12.70
2022-11-10T10:08:01.533Z,12.51
2022-11-10T10:10:51.256Z,12.62
2022-11-10T10:14:03.935Z,12.34
2022-11-10T10:17:28.959Z,12.48
2022-11-10T10:20:42.887Z,12.24
2022-11-10T10:23:54.426Z,12.17
2022-11-10T10:26:51.383Z,12.09
2022-11-10T10:29:43.950Z,12.24
2022-11-10T10:32:29.767Z,12.16
2022-11-10T10:35:17.308Z,12.10
2022-11-10T10:38:04.768Z,11.97
2022-11-10T10:40:52.745Z,12.02
2022-11-10T10:43:41.687Z,11.90
2022-11-10T10:46:34.378Z,11.81
2022-11-10T10:49:29.712Z,11.78
2022-11-10T10:52:20.341Z,11.74
2022-11-10T10:55:07.750Z,11.67
2022-11-10T10:57:59.170Z,11.61
2022-11-10T11:00:47.602Z,11.67
2022-11-10T11:03:48.038Z,11.55
2022-11-10T11:06:34.896Z,11.59
2022-11-10T11:09:30.180Z,11.69
2022-11-10T11:12:20.380Z,11.59
2022-11-10T11:15:16.312Z,11.73
2022-11-10T11:18:09.218Z,11.79
2022-11-10T11:21:20.171Z,11.74
2022-11-10T11:24:38.038Z,11.68
2022-11-10T11:27:46.297Z,11.63
2022-11-10T11:30:58.823Z,11.49
2022-11-10T11:33:54.011Z,11.43
2022-11-10T11:36:55.732Z,11.48
2022-11-10T11:39:48.806Z,11.41
2022-11-10T11:42:58.888Z,11.52
2022-11-10T11:46:19.296Z,11.44
2022-11-10T11:50:16.873Z,11.48
2022-11-10T11:53:30.965Z,11.39
2022-11-10T11:56:23.067Z,11.44
2022-11-10T11:59:44.432Z,11.38
2022-11-10T12:02:42.472Z,11.32
2022-11-10T12:05:46.678Z,11.34
2022-11-10T12:09:03.936Z,11.34
2022-11-10T12:11:56.833Z,11.23
2022-11-10T12:14:58.623Z,11.27
2022-11-10T12:18:13.042Z,11.24
2022-11-10T12:21:11.008Z,11.14
2022-11-10T12:24:37.070Z,11.14
2022-11-10T12:27:29.274Z,11.16
2022-11-10T12:30:17.455Z,11.21
2022-11-10T12:33:36.997Z,11.24
2022-11-10T12:36:24.587Z,11.13
2022-11-10T12:39:19.095Z,11.31
2022-11-10T12:42:06.161Z,11.28
2022-11-10T12:44:58.085Z,11.34
2022-11-10T12:47:45.652Z,11.44
2022-11-10T12:50:59.892Z,11.38
2022-11-10T12:53:46.979Z,11.52
2022-11-10T12:56:38.349Z,11.47
2022-11-10T12:59:28.622Z,11.55
2022-11-10T13:02:28.919Z,11.54
2022-11-10T13:05:15.184Z,11.58
2022-11-10T13:08:19.385Z,11.58
2022-11-10T13:11:06.767Z,11.63
2022-11-10T13:14:00.333Z,11.67
2022-11-10T13:16:50.260Z,11.58
2022-11-10T13:19:39.053Z,11.73
2022-11-10T13:22:29.799Z,11.68
2022-11-10T13:25:40.299Z,11.73
2022-11-10T13:28:47.997Z,11.86
2022-11-10T13:31:33.967Z,11.80
2022-11-10T13:34:19.963Z,11.82
2022-11-10T13:37:33.546Z,11.87
2022-11-10T13:40:25.589Z,11.74
2022-11-10T13:43:22.434Z,11.79
2022-11-10T13:46:08.706Z,11.87
2022-11-10T13:49:35.360Z,11.86
2022-11-10T13:53:02.605Z,11.82
2022-11-10T13:55:51.753Z,11.81
2022-11-10T13:58:43.168Z,11.84
2022-11-10T14:01:30.686Z,11.83
2022-11-10T14:04:35.383Z,11.85
2022-11-10T14:07:23.062Z,11.84
2022-11-10T14:10:26.904Z,11.88
2022-11-10T14:13:35.444Z,11.89
2022-11-10T14:16:24.388Z,11.86
2022-11-10T14:19:31.866Z,11.85
2022-11-10T14:22:29.147Z,11.85
2022-11-10T14:25:26.502Z,11.81
2022-11-10T14:28:35.458Z,11.74
2022-11-10T14:31:24.424Z,11.62
2022-11-10T14:34:16.170Z,11.59
2022-11-10T14:37:03.564Z,11.52
2022-11-10T14:39:58.578Z,11.57
2022-11-10T14:42:45.733Z,11.54
2022-11-10T14:45:31.889Z,11.51
2022-11-10T14:48:19.897Z,11.43
2022-11-10T14:51:15.269Z,11.39
2022-11-10T14:54:06.804Z,11.40
2022-11-10T14:57:02.259Z,11.36
2022-11-10T14:59:53.238Z,11.34
2022-11-10T15:02:40.971Z,11.30
2022-11-10T15:05:27.479Z,11.23
2022-11-10T15:08:16.357Z,11.11
2022-11-10T15:11:02.667Z,11.16
2022-11-10T15:13:48.461Z,11.19
2022-11-10T15:16:38.719Z,11.14
2022-11-10T15:19:28.452Z,11.06
2022-11-10T15:22:20.019Z,11.05
2022-11-10T15:25:14.412Z,10.92
2022-11-10T15:28:14.367Z,10.93
2022-11-10T15:31:02.892Z,10.93
2022-11-10T15:33:52.221Z,10.95
2022-11-10T15:36:41.556Z,10.95
2022-11-10T15:39:28.783Z,10.88
2022-11-10T15:42:21.423Z,10.90
2022-11-10T15:45:07.547Z,10.86
2022-11-10T15:47:53.553Z,10.87
2022-11-10T15:50:42.186Z,10.83
2022-11-10T15:53:31.262Z,10.78
2022-11-10T15:56:19.194Z,10.79
2022-11-10T15:59:05.229Z,10.80
2022-11-10T16:01:51.736Z,10.74
2022-11-10T16:04:37.860Z,10.79
2022-11-10T16:07:23.721Z,10.77
2022-11-10T16:10:10.395Z,10.76
2022-11-10T16:12:56.310Z,10.76
2022-11-10T16:15:42.953Z,10.74
2022-11-10T16:18:30.447Z,10.64
2022-11-10T16:21:21.632Z,10.70
2022-11-10T16:24:07.797Z,10.67
2022-11-10T16:26:53.808Z,10.71
2022-11-10T16:29:40.267Z,10.71
2022-11-10T16:32:26.203Z,10.69
2022-11-10T16:35:13.914Z,10.66
2022-11-10T16:38:00.060Z,10.67
2022-11-10T16:40:49.557Z,10.64
2022-11-10T16:43:36.685Z,10.60
2022-11-10T16:46:27.210Z,10.58
2022-11-10T16:49:23.615Z,10.53
2022-11-10T16:52:14.564Z,10.50
2022-11-10T16:55:00.509Z,10.50
2022-11-10T16:57:47.867Z,10.51
2022-11-10T17:00:34.115Z,10.51
2022-11-10T17:03:43.506Z,10.49
2022-11-10T17:06:29.837Z,10.46
2022-11-10T17:09:18.411Z,10.44
2022-11-10T17:12:04.915Z,10.40
2022-11-10T17:14:50.584Z,10.39
2022-11-10T17:17:36.831Z,10.36
2022-11-10T17:20:26.433Z,10.36
2022-11-10T17:23:16.499Z,10.37
2022-11-10T17:26:02.455Z,10.38
2022-11-10T17:28:48.608Z,10.27
2022-11-10T17:31:34.592Z,10.39
2022-11-10T17:34:20.746Z,10.29
2022-11-10T17:37:06.833Z,10.20
2022-11-10T17:39:53.001Z,10.20
2022-11-10T17:42:39.261Z,10.18
2022-11-10T17:45:27.964Z,10.16
2022-11-10T17:48:21.354Z,10.11
2022-11-10T17:51:18.501Z,10.14
2022-11-10T17:54:05.512Z,10.06
2022-11-10T17:56:51.515Z,10.08
2022-11-10T17:59:37.857Z,10.02
2022-11-10T18:02:25.916Z,10.04
2022-11-10T18:05:16.893Z,10.01
2022-11-10T18:08:03.987Z,9.94
2022-11-10T18:10:52.182Z,9.94
2022-11-10T18:13:39.122Z,9.86
2022-11-10T18:16:25.228Z,9.85
2022-11-10T18:19:11.385Z,9.84
2022-11-10T18:21:57.802Z,9.83
2022-11-10T18:24:44.083Z,9.82
2022-11-10T18:27:30.226Z,9.80
2022-11-10T18:30:17.089Z,9.79
2022-11-10T18:33:04.526Z,9.79
2022-11-10T18:35:50.672Z,9.75
2022-11-10T18:38:37.501Z,9.73
2022-11-10T18:41:41.970Z,9.69
2022-11-10T18:44:27.882Z,9.72
2022-11-10T18:47:14.068Z,9.73
2022-11-10T18:50:00.219Z,9.72
2022-11-10T18:52:46.033Z,9.69
2022-11-10T18:55:32.222Z,9.78
2022-11-10T18:58:18.355Z,9.76
2022-11-10T19:01:09.177Z,9.83
2022-11-10T19:03:55.865Z,9.81
2022-11-10T19:06:42.186Z,9.83
2022-11-10T19:09:28.794Z,9.86
2022-11-10T19:12:15.389Z,9.90
2022-11-10T19:15:01.230Z,9.93
2022-11-10T19:17:47.158Z,9.92
2022-11-10T19:20:36.372Z,9.98
2022-11-10T19:23:22.794Z,9.94
2022-11-10T19:26:20.895Z,10.03
2022-11-10T19:29:08.797Z,9.94
2022-11-10T19:31:54.741Z,10.08
2022-11-10T19:34:41.067Z,10.13
2022-11-10T19:37:30.917Z,10.17
2022-11-10T19:40:21.429Z,10.20
2022-11-10T19:43:08.318Z,10.19
2022-11-10T19:45:54.250Z,10.27
2022-11-10T19:48:40.354Z,10.15
2022-11-10T19:51:28.581Z,10.16
2022-11-10T19:54:14.642Z,10.29
2022-11-10T19:57:01.257Z,10.34
2022-11-10T19:59:47.609Z,10.37
2022-11-10T20:02:34.006Z,10.37
2022-11-10T20:05:20.114Z,10.34
2022-11-10T20:08:10.907Z,10.35
2022-11-10T20:11:04.073Z,10.36
2022-11-10T20:13:55.009Z,10.38
2022-11-10T20:16:41.252Z,10.36
2022-11-10T20:19:27.524Z,10.37
2022-11-10T20:22:13.786Z,10.39
2022-11-10T20:25:00.529Z,10.27
2022-11-10T20:27:46.917Z,10.37
2022-11-10T20:30:43.045Z,10.34
2022-11-10T20:33:30.318Z,10.34
2022-11-10T20:36:22.423Z,10.31
2022-11-10T20:39:08.817Z,10.31
2022-11-10T20:41:54.920Z,10.34
2022-11-10T20:44:41.301Z,10.33
2022-11-10T20:47:28.680Z,10.32
2022-11-10T20:50:20.388Z,10.32
2022-11-10T20:53:09.157Z,10.21
2022-11-10T20:56:02.222Z,10.18
2022-11-10T20:58:49.184Z,10.28
2022-11-10T21:01:37.651Z,10.28
2022-11-10T21:04:24.240Z,10.24
2022-11-10T21:07:10.299Z,10.26
2022-11-10T21:09:56.292Z,10.24
2022-11-10T21:12:49.323Z,10.24
2022-11-10T21:15:39.682Z,10.19
2022-11-10T21:18:28.551Z,10.21
2022-11-10T21:21:22.796Z,10.20
2022-11-10T21:24:09.456Z,10.14
2022-11-10T21:26:56.937Z,10.17
2022-11-10T21:29:43.343Z,10.01
2022-11-10T21:32:29.845Z,10.04
2022-11-10T21:35:16.647Z,9.99
2022-11-10T21:38:03.472Z,9.96
2022-11-10T21:40:49.375Z,9.98
2022-11-10T21:43:35.740Z,9.90
2022-11-10T21:46:21.843Z,9.83
2022-11-10T21:49:08.266Z,9.75
2022-11-10T21:51:54.633Z,9.70
2022-11-10T21:54:40.360Z,9.65
2022-11-10T21:57:26.429Z,9.59
2022-11-10T22:00:13.144Z,9.54
2022-11-10T22:03:02.499Z,9.45
2022-11-10T22:05:48.486Z,9.44
2022-11-10T22:08:35.696Z,9.37
2022-11-10T22:11:40.456Z,9.36
2022-11-10T22:14:44.681Z,9.32
2022-11-10T22:17:49.721Z,9.22
2022-11-10T22:20:35.789Z,9.20
2022-11-10T22:23:41.740Z,9.15
2022-11-10T22:26:27.680Z,9.01
2022-11-10T22:29:13.479Z,8.99
2022-11-10T22:32:03.612Z,8.98
2022-11-10T22:34:49.658Z,8.98
2022-11-10T22:37:36.106Z,8.93
2022-11-10T22:40:40.194Z,8.82
2022-11-10T22:43:44.442Z,8.84
2022-11-10T22:46:40.936Z,8.81
2022-11-10T22:49:27.027Z,8.63
2022-11-10T22:52:12.946Z,8.70
2022-11-10T22:54:58.775Z,8.60
2022-11-10T22:57:44.680Z,8.56
2022-11-10T23:00:31.071Z,8.56
2022-11-10T23:03:16.866Z,8.48
2022-11-10T23:06:03.305Z,8.49
2022-11-10T23:08:49.128Z,8.32
2022-11-10T23:11:35.092Z,8.33
2022-11-10T23:14:20.917Z,8.27
2022-11-10T23:17:06.678Z,8.21
2022-11-10T23:19:53.989Z,8.14
2022-11-10T23:22:40.709Z,8.24
2022-11-10T23:25:26.491Z,8.22
2022-11-10T23:28:12.336Z,8.10
2022-11-10T23:31:08.325Z,8.15
2022-11-10T23:33:55.791Z,8.02
2022-11-10T23:36:42.121Z,8.06
2022-11-10T23:39:28.148Z,8.03
2022-11-10T23:42:14.497Z,7.95
2022-11-10T23:45:00.529Z,8.00
2022-11-10T23:47:46.414Z,7.91
2022-11-10T23:50:32.991Z,7.93
2022-11-10T23:53:19.876Z,7.87
2022-11-10T23:56:09.193Z,7.85
2022-11-10T23:58:55.304Z,7.79
